createdAt,value
2019-04-16T00:02:23.687Z,20.73
2019-04-16T00:05:03.022Z,19.80
2019-04-16T00:07:51.383Z,19.53
2019-04-16T00:10:46.425Z,20.40
2019-04-16T00:13:25.865Z,20.23
2019-04-16T00:15:56.119Z,20.80
2019-04-16T00:18:26.227Z,19.47
2019-04-16T00:21:18.217Z,20.30
2019-04-16T00:24:10.116Z,21.23
2019-04-16T00:26:42.003Z,20.50
2019-04-16T00:29:12.099Z,19.80
2019-04-16T00:31:43.243Z,22.10
2019-04-16T00:34:14.419Z,22.00
2019-04-16T00:36:48.489Z,22.40
2019-04-16T00:39:16.634Z,22.67
2019-04-16T00:41:46.763Z,22.45
2019-04-16T00:44:16.837Z,20.37
2019-04-16T00:46:46.942Z,19.98
2019-04-16T00:49:17.152Z,21.40
2019-04-16T00:51:47.364Z,21.07
2019-04-16T00:54:17.455Z,22.10
2019-04-16T00:56:47.714Z,21.87
2019-04-16T00:59:17.801Z,20.45
2019-04-16T01:01:47.965Z,19.63
2019-04-16T01:04:18.082Z,21.80
2019-04-16T01:06:48.240Z,20.00
2019-04-16T01:09:18.496Z,20.80
2019-04-16T01:11:48.928Z,20.57
2019-04-16T01:14:19.833Z,20.80
2019-04-16T01:16:50.064Z,20.47
2019-04-16T01:19:20.195Z,20.20
2019-04-16T01:21:50.371Z,22.17
2019-04-16T01:24:21.193Z,20.70
2019-04-16T01:26:51.360Z,21.50
2019-04-16T01:29:21.469Z,19.57
2019-04-16T01:32:11.939Z,19.27
2019-04-16T01:34:59.737Z,19.93
2019-04-16T01:37:56.737Z,19.17
2019-04-16T01:40:35.886Z,17.37
2019-04-16T01:43:06.064Z,18.67
2019-04-16T01:45:36.149Z,18.50
2019-04-16T01:48:08.018Z,19.47
2019-04-16T01:50:38.048Z,19.40
2019-04-16T01:53:08.266Z,18.93
2019-04-16T01:55:38.363Z,18.48
2019-04-16T01:58:08.456Z,18.60
2019-04-16T02:00:39.266Z,17.43
2019-04-16T02:03:10.600Z,17.60
2019-04-16T02:05:40.808Z,18.10
2019-04-16T02:08:11.038Z,17.73
2019-04-16T02:10:41.163Z,17.50
2019-04-16T02:13:14.565Z,17.07
2019-04-16T02:15:43.219Z,17.90
2019-04-16T02:18:13.345Z,17.23
2019-04-16T02:20:43.480Z,19.13
2019-04-16T02:23:16.468Z,17.00
2019-04-16T02:25:45.432Z,16.30
2019-04-16T02:28:15.559Z,17.40
2019-04-16T02:30:45.654Z,17.47
2019-04-16T02:33:17.305Z,17.57
2019-04-16T02:35:47.396Z,17.10
2019-04-16T02:38:17.583Z,17.20
2019-04-16T02:40:52.932Z,17.00
2019-04-16T02:43:20.595Z,18.47
2019-04-16T02:45:56.686Z,17.10
2019-04-16T02:48:22.498Z,16.83
2019-04-16T02:51:05.332Z,16.57
2019-04-16T02:53:58.840Z,17.30
2019-04-16T02:56:51.558Z,18.03
2019-04-16T02:59:24.040Z,17.23
2019-04-16T03:02:31.458Z,16.80
2019-04-16T03:05:07.166Z,17.47
2019-04-16T03:07:37.440Z,18.03
2019-04-16T03:10:12.029Z,15.60
2019-04-16T03:12:39.470Z,17.63
2019-04-16T03:15:09.701Z,15.63
2019-04-16T03:17:45.411Z,16.97
2019-04-16T03:20:16.319Z,16.90
2019-04-16T03:22:46.407Z,16.70
2019-04-16T03:25:16.578Z,16.90
2019-04-16T03:27:46.647Z,16.50
2019-04-16T03:30:16.794Z,16.20
2019-04-16T03:32:50.729Z,16.67
2019-04-16T03:35:25.524Z,16.97
2019-04-16T03:37:52.808Z,16.20
2019-04-16T03:40:25.410Z,16.80
2019-04-16T03:42:58.876Z,14.67
2019-04-16T03:45:26.544Z,16.13
2019-04-16T03:47:56.655Z,16.43
2019-04-16T03:50:31.032Z,15.67
2019-04-16T03:52:58.667Z,16.87
2019-04-16T03:55:28.739Z,15.87
2019-04-16T03:57:58.967Z,17.57
2019-04-16T04:00:29.258Z,16.35
2019-04-16T04:02:59.379Z,15.10
2019-04-16T04:05:29.440Z,14.90
2019-04-16T04:08:01.949Z,15.50
2019-04-16T04:10:36.873Z,16.10
2019-04-16T04:13:04.980Z,15.83
2019-04-16T04:15:35.410Z,15.20
2019-04-16T04:18:07.828Z,15.07
2019-04-16T04:20:37.434Z,16.60
2019-04-16T04:23:07.679Z,15.73
2019-04-16T04:25:37.770Z,15.43
2019-04-16T04:28:07.890Z,15.43
2019-04-16T04:30:38.020Z,15.60
2019-04-16T04:33:12.010Z,16.33
2019-04-16T04:35:42.109Z,16.85
2019-04-16T04:38:12.283Z,15.03
2019-04-16T04:40:44.717Z,15.43
2019-04-16T04:43:14.289Z,16.27
2019-04-16T04:45:44.383Z,15.83
2019-04-16T04:48:14.541Z,16.37
2019-04-16T04:50:44.785Z,15.27
2019-04-16T04:53:15.634Z,15.70
2019-04-16T04:55:46.709Z,14.70
2019-04-16T04:58:17.039Z,15.90
2019-04-16T05:00:47.283Z,15.33
2019-04-16T05:03:36.335Z,16.20
2019-04-16T05:06:07.540Z,15.90
2019-04-16T05:08:37.861Z,15.67
2019-04-16T05:11:08.033Z,15.23
2019-04-16T05:13:38.147Z,15.73
2019-04-16T05:16:08.268Z,16.02
2019-04-16T05:18:41.895Z,16.33
2019-04-16T05:21:10.196Z,16.70
2019-04-16T05:23:40.369Z,15.47
2019-04-16T05:26:10.654Z,14.60
2019-04-16T05:28:44.304Z,16.20
2019-04-16T05:31:12.649Z,15.10
2019-04-16T05:33:42.741Z,16.07
2019-04-16T05:36:14.226Z,15.27
2019-04-16T05:38:44.893Z,15.83
2019-04-16T05:41:20.514Z,17.12
2019-04-16T05:43:47.182Z,15.33
2019-04-16T05:46:17.397Z,13.77
2019-04-16T05:48:47.591Z,13.68
2019-04-16T05:51:17.838Z,15.70
2019-04-16T05:53:51.640Z,14.50
2019-04-16T05:56:27.005Z,15.90
2019-04-16T05:58:59.626Z,15.40
2019-04-16T06:01:42.403Z,14.80
2019-04-16T06:04:13.726Z,15.30
2019-04-16T06:06:43.952Z,14.33
2019-04-16T06:09:14.072Z,15.43
2019-04-16T06:11:44.260Z,15.33
2019-04-16T06:14:42.330Z,14.28
2019-04-16T06:17:49.447Z,14.03
2019-04-16T06:20:41.454Z,14.50
2019-04-16T06:23:36.180Z,14.40
2019-04-16T06:26:28.009Z,14.20
2019-04-16T06:29:11.695Z,14.90
2019-04-16T06:32:03.607Z,14.40
2019-04-16T06:35:00.863Z,13.67
2019-04-16T06:37:42.103Z,13.87
2019-04-16T06:40:32.686Z,14.50
2019-04-16T06:43:08.181Z,14.87
2019-04-16T06:45:43.155Z,14.80
2019-04-16T06:48:17.707Z,12.98
2019-04-16T06:51:11.689Z,14.45
2019-04-16T06:53:44.575Z,14.37
2019-04-16T06:56:32.965Z,12.65
2019-04-16T06:59:09.976Z,13.67
2019-04-16T07:01:59.073Z,13.10
2019-04-16T07:04:51.209Z,14.87
2019-04-16T07:07:40.292Z,15.23
2019-04-16T07:10:18.682Z,14.43
2019-04-16T07:12:48.925Z,13.55
2019-04-16T07:15:22.599Z,14.47
2019-04-16T07:17:51.035Z,14.77
2019-04-16T07:20:21.156Z,14.50
2019-04-16T07:22:53.041Z,15.93
2019-04-16T07:25:27.028Z,13.93
2019-04-16T07:28:00.676Z,13.90
2019-04-16T07:30:42.226Z,14.70
2019-04-16T07:33:19.984Z,14.67
2019-04-16T07:36:11.939Z,14.37
2019-04-16T07:38:50.913Z,13.87
2019-04-16T07:41:42.776Z,14.27
2019-04-16T07:44:15.478Z,13.23
2019-04-16T07:47:02.970Z,14.57
2019-04-16T07:49:59.817Z,14.87
2019-04-16T07:52:47.511Z,15.20
2019-04-16T07:55:27.827Z,13.87
2019-04-16T07:57:58.129Z,14.60
2019-04-16T08:00:28.207Z,15.00
2019-04-16T08:02:58.333Z,13.60
2019-04-16T08:05:28.608Z,12.60
2019-04-16T08:07:58.717Z,13.40
2019-04-16T08:10:28.957Z,14.17
2019-04-16T08:13:08.160Z,14.10
2019-04-16T08:15:38.305Z,14.47
2019-04-16T08:18:08.392Z,14.73
2019-04-16T08:20:38.465Z,14.53
2019-04-16T08:23:51.390Z,14.50
2019-04-16T08:26:17.392Z,14.20
2019-04-16T08:28:47.482Z,13.77
2019-04-16T08:31:26.075Z,14.40
2019-04-16T08:33:56.210Z,13.28
2019-04-16T08:36:26.337Z,14.13
2019-04-16T08:38:56.469Z,14.43
2019-04-16T08:41:26.632Z,16.10
2019-04-16T08:43:59.739Z,14.40
2019-04-16T08:46:30.395Z,15.43
2019-04-16T08:49:00.536Z,14.33
2019-04-16T08:51:37.033Z,15.50
2019-04-16T08:54:05.512Z,15.77
2019-04-16T08:56:35.876Z,16.00
2019-04-16T08:59:09.545Z,16.90
2019-04-16T09:01:38.184Z,14.97
2019-04-16T09:04:08.375Z,16.93
2019-04-16T09:06:42.632Z,14.93
2019-04-16T09:09:29.016Z,15.97
2019-04-16T09:12:02.023Z,14.73
2019-04-16T09:14:34.507Z,14.87
2019-04-16T09:17:16.291Z,16.70
2019-04-16T09:20:10.968Z,16.00
2019-04-16T09:22:48.763Z,17.05
2019-04-16T09:25:31.985Z,15.80
2019-04-16T09:28:24.673Z,15.00
2019-04-16T09:31:01.650Z,17.40
2019-04-16T09:33:45.643Z,16.67
2019-04-16T09:36:46.809Z,16.67
2019-04-16T09:39:34.011Z,15.78
2019-04-16T09:42:04.466Z,17.03
2019-04-16T09:44:35.445Z,16.60
2019-04-16T09:47:05.980Z,17.13
2019-04-16T09:49:37.678Z,17.67
2019-04-16T09:52:07.912Z,17.37
2019-04-16T09:54:38.111Z,17.73
2019-04-16T09:57:08.323Z,16.17
2019-04-16T09:59:49.833Z,17.60
2019-04-16T10:02:27.426Z,17.40
2019-04-16T10:05:05.835Z,18.00
2019-04-16T10:07:39.984Z,17.47
2019-04-16T10:10:08.224Z,18.00
2019-04-16T10:12:38.394Z,19.90
2019-04-16T10:15:08.748Z,20.50
2019-04-16T10:17:40.887Z,17.63
2019-04-16T10:20:12.060Z,19.17
2019-04-16T10:22:42.415Z,20.07
2019-04-16T10:25:13.944Z,19.87
2019-04-16T10:27:58.810Z,19.50
2019-04-16T10:30:39.836Z,18.00
2019-04-16T10:33:12.891Z,18.30
2019-04-16T10:35:43.067Z,19.70
2019-04-16T10:38:31.073Z,18.60
2019-04-16T10:41:07.067Z,18.67
2019-04-16T10:44:11.196Z,19.33
2019-04-16T10:47:05.182Z,20.37
2019-04-16T10:50:03.116Z,19.97
2019-04-16T10:52:58.301Z,19.70
2019-04-16T10:55:47.308Z,19.95
2019-04-16T10:58:34.931Z,19.73
2019-04-16T11:01:17.187Z,20.50
2019-04-16T11:03:56.084Z,19.97
2019-04-16T11:06:36.909Z,20.50
2019-04-16T11:09:08.215Z,19.83
2019-04-16T11:11:38.426Z,21.60
2019-04-16T11:14:08.773Z,21.87
2019-04-16T11:16:40.620Z,21.00
2019-04-16T11:19:10.760Z,21.43
2019-04-16T11:21:41.087Z,22.70
2019-04-16T11:24:11.561Z,22.00
2019-04-16T11:26:44.453Z,39.40
2019-04-16T11:29:16.993Z,21.30
2019-04-16T11:31:54.335Z,21.47
2019-04-16T11:34:23.205Z,21.40
2019-04-16T11:36:53.416Z,21.90
2019-04-16T11:39:31.982Z,21.37
2019-04-16T11:42:00.889Z,21.07
2019-04-16T11:44:36.063Z,22.07
2019-04-16T11:47:06.949Z,20.50
2019-04-16T11:49:38.973Z,20.40
2019-04-16T11:52:11.773Z,20.80
2019-04-16T11:54:46.847Z,21.60
2019-04-16T11:57:16.712Z,22.00
2019-04-16T11:59:47.302Z,20.70
2019-04-16T12:02:44.901Z,20.97
2019-04-16T12:05:20.129Z,20.70
2019-04-16T12:08:03.211Z,21.73
2019-04-16T12:11:00.522Z,21.20
2019-04-16T12:13:40.893Z,21.70
2019-04-16T12:16:24.366Z,22.20
2019-04-16T12:19:18.228Z,21.55
2019-04-16T12:22:06.353Z,22.50
2019-04-16T12:24:57.681Z,23.93
2019-04-16T12:27:45.623Z,22.50
2019-04-16T12:30:35.367Z,23.03
2019-04-16T12:33:30.332Z,22.53
2019-04-16T12:36:15.155Z,22.85
2019-04-16T12:39:00.795Z,23.63
2019-04-16T12:41:55.875Z,23.60
2019-04-16T12:44:44.389Z,23.35
2019-04-16T12:47:24.915Z,23.63
2019-04-16T12:50:22.915Z,25.83
2019-04-16T12:53:00.876Z,24.60
2019-04-16T12:55:56.016Z,24.82
2019-04-16T12:58:43.602Z,26.40
2019-04-16T13:01:27.547Z,27.37
2019-04-16T13:04:16.569Z,26.77
2019-04-16T13:06:59.014Z,25.23
2019-04-16T13:10:03.753Z,25.23
2019-04-16T13:12:53.372Z,27.30
2019-04-16T13:15:34.264Z,25.77
2019-04-16T13:22:39.670Z,25.87
2019-04-16T13:27:36.776Z,27.90
2019-04-16T13:30:09.540Z,27.53
2019-04-16T13:32:54.926Z,27.80
2019-04-16T13:35:18.808Z,24.90
2019-04-16T13:37:51.232Z,26.57
2019-04-16T13:40:21.583Z,26.67
2019-04-16T13:42:51.770Z,31.73
2019-04-16T13:45:33.280Z,26.77
2019-04-16T13:48:16.141Z,28.97
2019-04-16T13:50:44.167Z,28.65
2019-04-16T13:53:31.988Z,29.10
2019-04-16T13:56:19.665Z,27.57
2019-04-16T13:59:09.971Z,46.73
2019-04-16T14:01:46.176Z,31.80
2019-04-16T14:04:17.049Z,28.03
2019-04-16T14:06:48.806Z,28.47
2019-04-16T14:09:18.993Z,31.37
2019-04-16T14:11:51.271Z,29.13
2019-04-16T14:14:22.669Z,32.42
2019-04-16T14:16:52.868Z,33.53
2019-04-16T14:19:24.934Z,30.60
2019-04-16T14:22:01.052Z,49.53
2019-04-16T14:24:32.547Z,32.73
2019-04-16T14:27:03.191Z,32.73
2019-04-16T14:29:35.773Z,32.13
2019-04-16T14:32:05.572Z,36.13
2019-04-16T14:35:00.834Z,36.63
2019-04-16T14:37:30.928Z,32.58
2019-04-16T14:40:14.925Z,34.23
2019-04-16T14:42:45.099Z,32.40
2019-04-16T14:45:24.279Z,32.40
2019-04-16T14:47:54.441Z,34.10
2019-04-16T14:50:24.676Z,35.63
2019-04-16T14:52:55.180Z,32.15
2019-04-16T14:56:00.590Z,34.63
2019-04-16T14:58:53.806Z,34.23
2019-04-16T15:01:57.733Z,27.77
2019-04-16T15:04:45.550Z,30.10
2019-04-16T15:07:33.628Z,33.30
2019-04-16T15:10:22.805Z,29.00
2019-04-16T15:13:14.809Z,34.13
2019-04-16T15:15:48.682Z,31.63
2019-04-16T15:18:36.439Z,35.93
2019-04-16T15:21:25.464Z,33.63
2019-04-16T15:24:06.690Z,27.53
2019-04-16T15:26:53.457Z,34.05
2019-04-16T15:29:42.615Z,33.60
2019-04-16T15:32:30.372Z,34.80
2019-04-16T15:35:00.837Z,32.67
2019-04-16T15:37:37.704Z,35.60
2019-04-16T15:40:13.212Z,37.67
2019-04-16T15:42:53.145Z,32.90
2019-04-16T15:45:47.571Z,33.10
2019-04-16T15:48:39.435Z,33.90
2019-04-16T15:51:34.449Z,35.17
2019-04-16T15:54:22.082Z,34.20
2019-04-16T15:57:17.149Z,33.93
2019-04-16T16:00:24.488Z,32.50
2019-04-16T16:03:12.267Z,36.43
2019-04-16T16:05:45.742Z,32.08
2019-04-16T16:08:30.542Z,32.13
2019-04-16T16:11:03.396Z,29.80
2019-04-16T16:13:33.481Z,31.30
2019-04-16T16:16:03.581Z,31.33
2019-04-16T16:18:35.685Z,30.73
2019-04-16T16:21:05.704Z,28.67
2019-04-16T16:23:35.817Z,30.60
2019-04-16T16:26:06.221Z,27.50
2019-04-16T16:28:36.294Z,27.63
2019-04-16T16:31:06.413Z,27.32
2019-04-16T16:33:36.460Z,27.07
2019-04-16T16:36:06.664Z,26.07
2019-04-16T16:38:36.877Z,26.03
2019-04-16T16:41:07.035Z,25.47
2019-04-16T16:43:37.135Z,23.30
2019-04-16T16:46:25.689Z,25.40
2019-04-16T16:48:56.288Z,24.33
2019-04-16T16:51:26.433Z,24.53
2019-04-16T16:54:05.623Z,24.70
2019-04-16T16:56:44.939Z,24.60
2019-04-16T16:59:33.978Z,23.95
2019-04-16T17:02:16.554Z,23.63
2019-04-16T17:04:51.201Z,23.35
2019-04-16T17:07:21.428Z,24.13
2019-04-16T17:09:51.632Z,21.83
2019-04-16T17:12:22.125Z,21.57
2019-04-16T17:14:52.350Z,21.87
2019-04-16T17:17:22.612Z,21.67
2019-04-16T17:19:52.757Z,22.03
2019-04-16T17:22:23.023Z,22.43
2019-04-16T17:24:53.198Z,21.50
2019-04-16T17:27:25.123Z,22.27
2019-04-16T17:29:55.300Z,22.43
2019-04-16T17:32:25.644Z,21.90
2019-04-16T17:34:55.935Z,20.87
2019-04-16T17:37:28.752Z,21.07
2019-04-16T17:40:03.862Z,19.90
2019-04-16T17:42:43.234Z,21.40
2019-04-16T17:45:29.646Z,20.37
2019-04-16T17:48:05.010Z,21.30
2019-04-16T17:50:52.859Z,20.00
2019-04-16T17:53:42.037Z,19.07
2019-04-16T17:56:37.901Z,19.70
2019-04-16T17:59:10.933Z,18.30
2019-04-16T18:01:58.448Z,19.43
2019-04-16T18:04:58.093Z,18.57
2019-04-16T18:07:46.452Z,17.97
2019-04-16T18:10:34.036Z,17.73
2019-04-16T18:13:32.139Z,17.65
2019-04-16T18:16:21.192Z,17.83
2019-04-16T18:18:58.429Z,15.80
2019-04-16T18:21:47.777Z,16.33
2019-04-16T18:24:43.315Z,15.07
2019-04-16T18:27:44.680Z,15.27
2019-04-16T18:30:32.783Z,14.87
2019-04-16T18:33:24.685Z,16.57
2019-04-16T18:36:17.058Z,16.83
2019-04-16T18:39:09.758Z,15.70
2019-04-16T18:41:59.020Z,15.90
2019-04-16T18:44:46.716Z,15.60
2019-04-16T18:47:33.290Z,14.93
2019-04-16T18:50:08.065Z,14.00
2019-04-16T18:52:38.599Z,14.20
2019-04-16T18:55:09.059Z,14.07
2019-04-16T18:57:39.334Z,14.77
2019-04-16T19:00:31.993Z,15.50
2019-04-16T19:03:01.101Z,14.30
2019-04-16T19:05:31.526Z,15.70
2019-04-16T19:08:01.880Z,14.07
2019-04-16T19:10:32.253Z,19.70
2019-04-16T19:13:09.617Z,15.47
2019-04-16T19:15:36.241Z,14.03
2019-04-16T19:18:18.917Z,14.10
2019-04-16T19:20:39.350Z,15.05
2019-04-16T19:23:09.784Z,13.90
2019-04-16T19:25:40.251Z,14.40
2019-04-16T19:28:10.693Z,14.30
2019-04-16T19:30:44.709Z,14.50
2019-04-16T19:33:17.012Z,13.93
2019-04-16T19:35:51.931Z,13.20
2019-04-16T19:38:20.853Z,14.07
2019-04-16T19:40:51.848Z,14.05
2019-04-16T19:43:22.378Z,16.95
2019-04-16T19:45:52.869Z,17.03
2019-04-16T19:48:35.414Z,17.93
2019-04-16T19:50:55.373Z,16.63
2019-04-16T19:53:25.712Z,16.10
2019-04-16T19:55:55.944Z,15.57
2019-04-16T19:58:26.224Z,15.57
2019-04-16T20:00:57.400Z,14.65
2019-04-16T20:03:30.456Z,15.30
2019-04-16T20:06:01.018Z,15.38
2019-04-16T20:08:36.715Z,14.60
2019-04-16T20:11:03.954Z,15.63
2019-04-16T20:13:34.418Z,14.63
2019-04-16T20:16:06.979Z,15.60
2019-04-16T20:18:50.346Z,14.83
2019-04-16T20:21:09.452Z,14.73
2019-04-16T20:23:40.094Z,15.10
2019-04-16T20:26:10.303Z,14.80
2019-04-16T20:28:40.528Z,13.37
2019-04-16T20:31:12.756Z,14.20
2019-04-16T20:33:43.014Z,14.68
2019-04-16T20:36:14.121Z,14.50
2019-04-16T20:38:44.608Z,14.60
2019-04-16T20:41:18.063Z,13.30
2019-04-16T20:43:47.512Z,13.53
2019-04-16T20:46:17.999Z,13.90
2019-04-16T20:48:48.707Z,13.78
2019-04-16T20:51:19.325Z,14.43
2019-04-16T20:53:49.837Z,13.77
2019-04-16T20:56:21.582Z,13.90
2019-04-16T20:58:52.545Z,13.83
2019-04-16T21:01:33.927Z,14.93
2019-04-16T21:04:04.598Z,16.07
2019-04-16T21:06:29.700Z,14.53
2019-04-16T21:08:59.852Z,14.70
2019-04-16T21:11:29.929Z,14.00
2019-04-16T21:14:00.091Z,14.07
2019-04-16T21:16:33.477Z,13.50
2019-04-16T21:19:02.474Z,13.97
2019-04-16T21:21:32.617Z,12.87
2019-04-16T21:24:06.921Z,12.90
2019-04-16T21:26:34.684Z,11.87
2019-04-16T21:29:23.927Z,12.57
2019-04-16T21:31:58.644Z,12.50
2019-04-16T21:34:37.971Z,11.97
2019-04-16T21:37:29.917Z,12.23
2019-04-16T21:40:01.720Z,12.77
2019-04-16T21:42:34.828Z,11.65
2019-04-16T21:45:03.801Z,12.63
2019-04-16T21:47:33.910Z,11.03
2019-04-16T21:50:04.363Z,11.60
2019-04-16T21:52:34.543Z,12.37
2019-04-16T21:55:05.234Z,12.28
2019-04-16T21:57:35.388Z,11.97
2019-04-16T22:00:08.693Z,11.97
2019-04-16T22:02:39.645Z,11.87
2019-04-16T22:05:16.743Z,11.20
2019-04-16T22:07:43.687Z,12.37
2019-04-16T22:10:13.817Z,11.80
2019-04-16T22:12:44.706Z,11.77
2019-04-16T22:15:15.746Z,13.20
2019-04-16T22:17:45.917Z,13.00
2019-04-16T22:20:16.065Z,12.67
2019-04-16T22:22:47.371Z,13.30
2019-04-16T22:25:17.690Z,13.97
2019-04-16T22:27:47.751Z,14.20
2019-04-16T22:30:19.426Z,14.40
2019-04-16T22:32:49.735Z,13.70
2019-04-16T22:35:19.853Z,13.87
2019-04-16T22:37:49.961Z,14.57
2019-04-16T22:40:37.573Z,16.00
2019-04-16T22:43:23.415Z,14.18
2019-04-16T22:46:01.629Z,15.60
2019-04-16T22:48:35.830Z,14.98
2019-04-16T22:51:09.655Z,16.40
2019-04-16T22:53:39.944Z,14.90
2019-04-16T22:56:11.743Z,15.50
2019-04-16T22:58:48.396Z,14.75
2019-04-16T23:01:19.700Z,14.80
2019-04-16T23:03:53.335Z,15.57
2019-04-16T23:06:22.289Z,15.80
2019-04-16T23:08:52.407Z,16.07
2019-04-16T23:11:24.656Z,15.88
2019-04-16T23:13:54.743Z,17.30
2019-04-16T23:16:24.807Z,16.93
2019-04-16T23:18:54.978Z,15.97
2019-04-16T23:21:25.301Z,15.47
2019-04-16T23:23:55.597Z,15.23
2019-04-16T23:26:25.688Z,15.67
2019-04-16T23:28:56.844Z,16.60
2019-04-16T23:31:27.032Z,15.63
2019-04-16T23:33:57.474Z,16.13
2019-04-16T23:36:27.689Z,15.30
2019-04-16T23:39:00.521Z,16.43
2019-04-16T23:41:29.659Z,16.70
2019-04-16T23:44:22.671Z,15.57
2019-04-16T23:47:13.411Z,14.77
2019-04-16T23:49:48.622Z,13.83
2019-04-16T23:52:21.013Z,16.07
2019-04-16T23:55:16.342Z,15.80
2019-04-16T23:58:02.598Z,15.50
